Chain of Rocks, Missouri
Current Conditions -  °F | °C
As of 9:54 AM on Friday 31 Oct 2014 (Local Time) from KSET Reporting Station
Clear Clear  
Wind Chill: -1°   Ceiling: Unl
Heat Index:   Visibility: 10mi
Dew Point: -4°   Wind: 22mph
Humidity: 53%   Direction: 330°NNW
Pressure: 30.28"   Gusts: 33mph
Location:  38.9362°N, 90.7728°W
Report Text: KSET 311454Z AUTO 33019G29KT 10SM CLR 04/M04 A3028 RMK AO2 PK WND 32029/1449 SLP256 T00441044 51038
Loading
Personal Weather Stations






























Interactive Weather Map
Tropical Storm Tracking
New forecast layout! Learn more

10-Day Weather Forecast

Advertisements
Track Severe Weather on mobile